Time;durP1;ratioP1;P1;durP2;ratioP2;P2;SDS_P1;SDS_P2;PMS_P1;PMS_P2;Temp;Humidity;BMP_temperature;BMP_pressure;BME280_temperature;BME280_humidity;BME280_pressure;Samples;Min_cycle;Max_cycle;Signal;HPM_P1;HPM_P2
2023/04/26 00:02:18;;;;;;;0.60;0.60;;;;;;;14.49;100.00;99124.69;5094035;28;20692;-72
2023/04/26 00:04:45;;;;;;;0.50;0.50;;;;;;;14.45;100.00;99123.00;5094035;28;20193;-72
2023/04/26 00:07:14;;;;;;;1.40;1.02;;;;;;;14.44;100.00;99128.25;5094004;28;20259;-72
2023/04/26 00:09:43;;;;;;;0.60;0.60;;;;;;;14.45;100.00;99127.38;5093828;28;20350;-72
2023/04/26 00:12:12;;;;;;;0.70;0.70;;;;;;;14.52;100.00;99123.78;5093854;28;20286;-73
2023/04/26 00:14:39;;;;;;;0.70;0.70;;;;;;;14.24;100.00;99121.56;5093747;28;20681;-72
2023/04/26 00:17:06;;;;;;;0.50;0.50;;;;;;;14.33;100.00;99131.88;5093706;28;20599;-72
2023/04/26 00:19:33;;;;;;;0.50;0.50;;;;;;;14.25;100.00;99125.03;5093744;28;20252;-72
2023/04/26 00:21:59;;;;;;;0.60;0.60;;;;;;;14.28;100.00;99128.47;5093733;28;20198;-72
2023/04/26 00:24:28;;;;;;;0.57;0.57;;;;;;;14.34;100.00;99131.00;5058404;28;20205;-72
2023/04/26 00:26:54;;;;;;;0.68;0.68;;;;;;;14.29;100.00;99127.59;5093839;28;20202;-72
2023/04/26 00:29:21;;;;;;;0.60;0.60;;;;;;;14.28;100.00;99127.59;5093565;28;20195;-72
2023/04/26 00:31:48;;;;;;;0.60;0.60;;;;;;;14.26;100.00;99121.56;5093843;28;20316;-73
2023/04/26 00:34:15;;;;;;;0.60;0.60;;;;;;;14.16;100.00;99123.41;5093806;28;20217;-72
2023/04/26 00:36:42;;;;;;;0.80;0.80;;;;;;;14.26;100.00;99119.81;5093583;28;20252;-72
2023/04/26 00:39:09;;;;;;;0.60;0.60;;;;;;;14.24;100.00;99118.09;5093361;28;20206;-72
2023/04/26 00:41:38;;;;;;;0.80;0.80;;;;;;;13.90;100.00;99044.78;5093541;28;20275;-72
2023/04/26 00:44:05;;;;;;;0.57;0.57;;;;;;;14.33;100.00;99124.06;5093385;28;20213;-72
2023/04/26 00:46:32;;;;;;;0.70;0.70;;;;;;;14.34;100.00;99122.31;5092680;28;20222;-72
2023/04/26 00:48:59;;;;;;;0.57;0.57;;;;;;;14.14;100.00;99106.94;5092852;28;20198;-72
2023/04/26 00:51:26;;;;;;;0.65;0.65;;;;;;;14.20;100.00;99119.03;5093285;28;20621;-72
2023/04/26 00:53:53;;;;;;;0.70;0.70;;;;;;;14.07;100.00;99110.53;5092795;28;20194;-72
2023/04/26 00:56:23;;;;;;;0.60;0.60;;;;;;;14.09;100.00;99115.75;5073885;28;20198;-72
2023/04/26 00:58:51;;;;;;;0.57;0.57;;;;;;;14.10;100.00;99113.09;5092655;28;20235;-72
2023/04/26 01:01:18;;;;;;;0.40;0.40;;;;;;;14.01;100.00;99121.06;5092914;28;20208;-72
2023/04/26 01:03:45;;;;;;;0.57;0.57;;;;;;;13.96;100.00;99107.22;5092910;28;20209;-72
2023/04/26 01:06:12;;;;;;;0.60;0.60;;;;;;;14.02;100.00;99107.13;5092181;28;20209;-72
2023/04/26 01:08:40;;;;;;;0.70;0.70;;;;;;;14.06;100.00;99118.38;5092818;28;20198;-72
2023/04/26 01:11:07;;;;;;;0.60;0.60;;;;;;;14.00;100.00;99114.13;5092841;28;20229;-72
2023/04/26 01:13:34;;;;;;;0.60;0.60;;;;;;;13.86;100.00;99108.25;5093139;28;20201;-72
2023/04/26 01:16:03;;;;;;;0.80;0.80;;;;;;;14.01;100.00;99105.41;5058383;28;20206;-72
2023/04/26 01:18:30;;;;;;;0.60;0.60;;;;;;;13.87;100.00;99102.16;5088580;28;20206;-73
2023/04/26 01:20:57;;;;;;;0.60;0.60;;;;;;;13.80;100.00;99105.72;5073222;28;20199;-73
2023/04/26 01:23:26;;;;;;;0.80;0.80;;;;;;;13.83;100.00;99103.94;5092507;28;20198;-73
2023/04/26 01:25:55;;;;;;;0.60;0.60;;;;;;;13.79;100.00;99096.19;5092278;28;20198;-73
2023/04/26 01:28:22;;;;;;;0.80;0.80;;;;;;;13.85;100.00;99098.69;5092875;28;20266;-73
2023/04/26 01:30:49;;;;;;;0.60;0.60;;;;;;;13.73;100.00;99073.66;5092770;28;20229;-73
2023/04/26 01:33:16;;;;;;;0.70;0.70;;;;;;;13.89;100.00;99100.38;5092562;28;20254;-73
2023/04/26 01:35:42;;;;;;;0.57;0.57;;;;;;;13.82;100.00;99088.31;5092020;28;20198;-73
2023/04/26 01:38:09;;;;;;;0.60;0.60;;;;;;;13.78;100.00;99089.25;5092391;28;20209;-73
2023/04/26 01:40:38;;;;;;;0.65;0.65;;;;;;;13.90;100.00;99096.88;5092235;28;20267;-73
2023/04/26 01:43:05;;;;;;;0.60;0.60;;;;;;;13.76;100.00;99080.59;5092339;28;20202;-73
2023/04/26 01:45:32;;;;;;;0.60;0.60;;;;;;;13.65;100.00;99059.91;5055835;28;20229;-72
2023/04/26 01:47:58;;;;;;;0.68;0.68;;;;;;;13.77;100.00;99088.38;5091747;28;20209;-73
2023/04/26 01:50:26;;;;;;;0.60;0.60;;;;;;;13.87;100.00;99087.38;5091616;28;20194;-72
2023/04/26 01:52:52;;;;;;;0.60;0.60;;;;;;;13.93;100.00;99086.41;5074836;28;20225;-72
2023/04/26 01:55:19;;;;;;;0.68;0.68;;;;;;;13.73;100.00;99058.03;5082387;28;20198;-72
2023/04/26 01:57:47;;;;;;;0.57;0.57;;;;;;;13.91;100.00;99077.78;5091913;28;20206;-72
2023/04/26 02:00:14;;;;;;;0.60;0.60;;;;;;;13.82;100.00;99068.34;5073332;28;20346;-72
2023/04/26 02:02:41;;;;;;;0.77;0.77;;;;;;;13.88;100.00;99068.25;5091736;28;20190;-72
2023/04/26 02:05:11;;;;;;;0.50;0.50;;;;;;;13.75;100.00;99052.81;5091655;28;20677;-72
2023/04/26 02:07:38;;;;;;;0.60;0.60;;;;;;;13.80;100.00;99064.03;5091946;28;20238;-72
2023/04/26 02:10:06;;;;;;;0.70;0.70;;;;;;;13.73;100.00;99052.81;5091606;28;20553;-72
2023/04/26 02:12:33;;;;;;;0.60;0.60;;;;;;;13.86;100.00;99061.34;5073096;28;20217;-73
2023/04/26 02:15:01;;;;;;;0.60;0.60;;;;;;;13.90;100.00;99055.19;5091771;28;20556;-72
2023/04/26 02:17:28;;;;;;;1.85;1.75;;;;;;;13.81;100.00;99050.97;5075028;28;20202;-73
2023/04/26 02:19:55;;;;;;;0.60;0.60;;;;;;;13.74;100.00;99064.09;5091213;28;20708;-73
2023/04/26 02:22:24;;;;;;;1.50;1.50;;;;;;;13.65;100.00;99059.03;5091768;28;20228;-73
2023/04/26 02:24:51;;;;;;;0.60;0.60;;;;;;;13.74;100.00;99058.91;5090906;28;20638;-73
2023/04/26 02:27:18;;;;;;;0.57;0.57;;;;;;;13.72;100.00;99065.88;5091594;28;20237;-72
2023/04/26 02:29:45;;;;;;;1.80;1.80;;;;;;;13.72;100.00;99068.50;5091136;28;20673;-72
2023/04/26 02:32:14;;;;;;;0.70;0.70;;;;;;;13.68;100.00;99038.16;5090972;28;20222;-73
2023/04/26 02:34:41;;;;;;;1.08;1.08;;;;;;;13.59;100.00;99072.16;5091424;28;20205;-73
2023/04/26 02:37:08;;;;;;;0.60;0.60;;;;;;;13.76;100.00;99062.34;5091061;28;20271;-73
2023/04/26 02:39:35;;;;;;;0.60;0.60;;;;;;;13.79;100.00;99077.94;5090882;28;20198;-73
2023/04/26 02:42:02;;;;;;;0.50;0.50;;;;;;;13.73;100.00;99062.41;5091343;28;20198;-73
2023/04/26 02:44:29;;;;;;;0.60;0.60;;;;;;;13.75;100.00;99071.91;5091264;28;20206;-73
2023/04/26 02:46:57;;;;;;;0.80;0.80;;;;;;;13.74;100.00;99074.53;5070453;28;20249;-73
2023/04/26 02:49:25;;;;;;;0.88;0.88;;;;;;;13.77;100.00;99069.28;5090738;28;20202;-73
2023/04/26 02:51:52;;;;;;;0.68;0.68;;;;;;;13.82;100.00;99072.69;5091026;28;20225;-73
2023/04/26 02:54:18;;;;;;;0.70;0.70;;;;;;;13.81;100.00;99066.59;5080558;28;20210;-73
2023/04/26 02:56:45;;;;;;;0.70;0.70;;;;;;;13.70;100.00;99072.84;5083494;28;20538;-73
2023/04/26 02:59:12;;;;;;;0.70;0.70;;;;;;;13.60;100.00;99066.91;5090466;28;20198;-73
2023/04/26 03:01:39;;;;;;;0.60;0.60;;;;;;;13.63;100.00;99072.06;5089808;28;20202;-73
2023/04/26 03:04:05;;;;;;;0.70;0.70;;;;;;;13.57;100.00;99066.09;5088497;28;20202;-73
2023/04/26 03:06:34;;;;;;;0.60;0.60;;;;;;;13.61;100.00;99068.63;5090502;28;20255;-73
2023/04/26 03:09:00;;;;;;;0.70;0.70;;;;;;;13.52;100.00;99067.91;5090565;28;20222;-73
2023/04/26 03:11:27;;;;;;;9.32;1.85;;;;;;;13.50;100.00;99072.25;5090030;28;20201;-73
2023/04/26 03:13:54;;;;;;;0.80;0.80;;;;;;;13.54;100.00;99072.22;5090745;28;20201;-73
2023/04/26 03:16:22;;;;;;;0.60;0.60;;;;;;;13.41;100.00;99068.88;5088415;28;20197;-73
2023/04/26 03:18:49;;;;;;;0.60;0.60;;;;;;;13.48;100.00;99079.25;5090802;28;20205;-73
2023/04/26 03:21:16;;;;;;;0.50;0.50;;;;;;;13.49;100.00;99080.94;5090462;28;20212;-73
2023/04/26 03:23:44;;;;;;;0.60;0.60;;;;;;;13.57;100.00;99092.13;5089962;28;20202;-73
2023/04/26 03:26:11;;;;;;;0.68;0.68;;;;;;;13.53;100.00;99100.84;5086076;28;20237;-73
2023/04/26 03:28:38;;;;;;;1.30;1.27;;;;;;;13.45;100.00;99093.13;5087698;28;20194;-73
2023/04/26 03:31:05;;;;;;;0.75;0.75;;;;;;;13.46;100.00;99101.81;5091048;28;20285;-73
2023/04/26 03:33:32;;;;;;;0.52;0.52;;;;;;;13.37;100.00;99087.19;5093904;28;20221;-73
2023/04/26 03:35:59;;;;;;;0.60;0.60;;;;;;;13.49;100.00;99101.78;5091998;28;20201;-73
2023/04/26 03:38:25;;;;;;;0.70;0.70;;;;;;;13.49;100.00;99105.25;5094369;28;20198;-73
2023/04/26 03:40:54;;;;;;;0.50;0.50;;;;;;;13.55;100.00;99117.34;5094514;28;20216;-73
2023/04/26 03:43:21;;;;;;;0.60;0.60;;;;;;;13.54;100.00;99102.59;5094221;28;20649;-73
2023/04/26 03:45:49;;;;;;;0.60;0.60;;;;;;;13.62;100.00;99111.19;5094424;28;20286;-73
2023/04/26 03:48:16;;;;;;;0.60;0.60;;;;;;;13.67;100.00;99119.78;5094442;28;20733;-72
2023/04/26 03:50:44;;;;;;;0.70;0.70;;;;;;;13.62;100.00;99105.97;5094740;28;20190;-71
2023/04/26 03:53:11;;;;;;;0.60;0.60;;;;;;;13.65;100.00;99117.22;5094824;28;20260;-74
2023/04/26 03:55:38;;;;;;;0.70;0.70;;;;;;;13.62;100.00;99116.38;5064202;28;20195;-74
2023/04/26 03:58:07;;;;;;;0.70;0.70;;;;;;;13.83;100.00;99130.00;5092914;28;20194;-74
2023/04/26 04:00:34;;;;;;;0.70;0.70;;;;;;;13.63;100.00;99118.09;5093937;28;20300;-73
2023/04/26 04:03:01;;;;;;;0.60;0.60;;;;;;;13.54;100.00;99110.41;5094539;28;20652;-73
2023/04/26 04:05:28;;;;;;;0.70;0.70;;;;;;;13.68;100.00;99139.75;5094574;28;20209;-75
2023/04/26 04:07:55;;;;;;;9.75;1.70;;;;;;;13.71;100.00;99140.56;5094536;28;20258;-73
2023/04/26 04:10:23;;;;;;;0.75;0.75;;;;;;;13.75;100.00;99144.84;5094130;28;20204;-73
2023/04/26 04:12:50;;;;;;;0.60;0.60;;;;;;;13.46;100.00;99122.66;5094054;28;20308;-73
2023/04/26 04:15:18;;;;;;;0.50;0.50;;;;;;;13.68;100.00;99147.56;5093903;28;20672;-76
2023/04/26 04:17:45;;;;;;;0.60;0.60;;;;;;;13.61;100.00;99161.53;5091716;28;20224;-74
2023/04/26 04:20:13;;;;;;;0.60;0.60;;;;;;;13.57;100.00;99157.25;5089272;28;20328;-75
2023/04/26 04:22:40;;;;;;;0.60;0.60;;;;;;;13.56;100.00;99168.53;5066841;28;20229;-76
2023/04/26 04:25:08;;;;;;;0.60;0.60;;;;;;;13.66;100.00;99164.97;5093860;28;20669;-74
2023/04/26 04:27:35;;;;;;;0.70;0.70;;;;;;;13.55;100.00;99161.63;5072082;28;20201;-76
2023/04/26 04:30:03;;;;;;;0.82;0.82;;;;;;;14.03;100.00;99170.53;5094542;28;20198;-76
2023/04/26 04:32:32;;;;;;;0.98;0.98;;;;;;;14.66;95.88;99147.91;5029891;28;20222;-75
2023/04/26 04:34:59;;;;;;;0.50;0.50;;;;;;;15.45;89.38;99173.44;5085144;28;20591;-75
2023/04/26 04:37:27;;;;;;;0.55;0.55;;;;;;;16.10;84.73;99164.28;5091517;28;20202;-75
2023/04/26 04:39:54;;;;;;;0.60;0.60;;;;;;;16.36;81.60;99168.94;5055918;28;20198;-74
2023/04/26 04:42:21;;;;;;;0.60;0.60;;;;;;;17.23;76.44;99162.41;5080885;28;20261;-74
2023/04/26 04:44:48;;;;;;;0.55;0.55;;;;;;;17.16;73.75;99155.59;5085991;28;20682;-74
2023/04/26 04:47:16;;;;;;;0.52;0.52;;;;;;;17.63;73.46;99141.25;5072726;28;20353;-74
2023/04/26 04:49:44;;;;;;;0.55;0.55;;;;;;;17.65;70.72;99142.06;5092399;28;20195;-75
2023/04/26 04:52:11;;;;;;;0.50;0.50;;;;;;;18.13;68.69;99143.22;5089833;28;20190;-74
2023/04/26 04:54:38;;;;;;;0.57;0.57;;;;;;;18.59;64.43;99126.06;5083229;28;20213;-74
2023/04/26 04:57:05;;;;;;;0.50;0.50;;;;;;;18.14;65.97;99138.84;5091760;28;20194;-74
2023/04/26 04:59:32;;;;;;;0.60;0.60;;;;;;;18.03;65.44;99118.19;5089794;28;20573;-72
2023/04/26 05:01:59;;;;;;;0.60;0.60;;;;;;;17.67;66.34;99148.13;5091482;28;20226;-75
2023/04/26 05:04:26;;;;;;;0.50;0.50;;;;;;;17.50;67.58;99139.84;5082175;28;20205;-74
2023/04/26 05:06:54;;;;;;;0.60;0.60;;;;;;;17.60;69.24;99139.56;5091726;28;20194;-74
2023/04/26 05:09:21;;;;;;;0.50;0.50;;;;;;;17.65;68.86;99160.44;5092787;28;20206;-74
2023/04/26 05:11:48;;;;;;;0.60;0.60;;;;;;;17.35;69.14;99121.03;5087956;28;20210;-74
2023/04/26 05:14:14;;;;;;;0.55;0.55;;;;;;;17.54;69.37;99151.97;5072820;28;20230;-74
2023/04/26 05:16:41;;;;;;;1.25;1.15;;;;;;;16.83;70.44;99084.06;5088402;28;20231;-73
2023/04/26 05:19:08;;;;;;;0.50;0.50;;;;;;;16.96;72.96;99156.13;5072455;28;20203;-71
2023/04/26 05:21:35;;;;;;;0.70;0.70;;;;;;;17.04;71.57;99121.91;5072801;28;20225;-73
2023/04/26 05:24:04;;;;;;;0.55;0.55;;;;;;;16.97;75.92;99159.63;5072777;28;20701;-75
2023/04/26 05:26:30;;;;;;;0.70;0.70;;;;;;;17.25;73.84;99155.38;5083806;28;20645;-74
2023/04/26 05:28:57;;;;;;;0.50;0.50;;;;;;;17.00;75.17;99147.31;5072732;28;20618;-74
2023/04/26 05:31:24;;;;;;;0.68;0.68;;;;;;;16.91;76.91;99150.16;5072500;28;20601;-74
2023/04/26 05:33:51;;;;;;;0.40;0.40;;;;;;;16.49;77.65;99146.81;5075156;28;20261;-74
2023/04/26 05:36:18;;;;;;;0.60;0.60;;;;;;;16.39;79.64;99137.47;5082499;28;20203;-74
2023/04/26 05:38:45;;;;;;;0.65;0.65;;;;;;;16.44;80.30;99153.06;5078462;28;20214;-69
2023/04/26 05:41:13;;;;;;;0.60;0.60;;;;;;;16.31;81.29;99153.31;5092434;28;20206;-71
2023/04/26 05:43:40;;;;;;;0.63;0.63;;;;;;;15.96;83.40;99140.19;5078305;28;20203;-73
2023/04/26 05:46:07;;;;;;;0.70;0.70;;;;;;;15.80;85.14;99150.09;5078038;28;20317;-74
2023/04/26 05:48:33;;;;;;;0.80;0.80;;;;;;;15.68;86.63;99149.50;5079935;28;20214;-72
2023/04/26 05:51:00;;;;;;;0.50;0.50;;;;;;;15.30;88.34;99122.34;5086181;28;20206;-72
2023/04/26 05:53:27;;;;;;;0.70;0.70;;;;;;;15.73;87.26;99152.91;5071260;28;20227;-73
2023/04/26 05:55:54;;;;;;;1.05;1.05;;;;;;;15.62;87.10;99144.41;5085966;28;20209;-72
2023/04/26 05:58:22;;;;;;;0.60;0.60;;;;;;;15.64;85.49;99134.78;5080771;28;20202;-73
2023/04/26 06:00:49;;;;;;;0.70;0.70;;;;;;;15.27;87.11;99143.31;5091745;28;20596;-72
2023/04/26 06:03:15;;;;;;;0.70;0.70;;;;;;;15.45;85.93;99149.06;5084780;28;20211;-75
2023/04/26 06:05:42;;;;;;;0.60;0.60;;;;;;;15.46;86.59;99135.97;5071611;28;20570;-73
2023/04/26 06:08:09;;;;;;;0.52;0.52;;;;;;;15.62;84.96;99155.72;5071398;28;20202;-73
2023/04/26 06:10:36;;;;;;;0.60;0.60;;;;;;;15.94;84.93;99152.44;5071538;28;20211;-73
2023/04/26 06:13:03;;;;;;;0.60;0.60;;;;;;;16.01;83.74;99150.56;5071271;28;20250;-73
2023/04/26 06:15:31;;;;;;;0.60;0.60;;;;;;;15.90;83.31;99160.38;5071425;28;20325;-73
2023/04/26 06:17:58;;;;;;;0.50;0.50;;;;;;;15.77;85.22;99159.75;5071401;28;20202;-73
2023/04/26 06:20:26;;;;;;;0.57;0.57;;;;;;;15.81;82.75;99154.44;5071403;28;20210;-73
2023/04/26 06:22:53;;;;;;;0.60;0.60;;;;;;;15.81;82.96;99156.19;5071261;28;20213;-72
2023/04/26 06:25:20;;;;;;;0.65;0.65;;;;;;;15.92;81.41;99161.19;5078184;28;20208;-73
2023/04/26 06:27:47;;;;;;;0.77;0.77;;;;;;;15.86;82.35;99159.59;5091258;28;20560;-72
2023/04/26 06:30:14;;;;;;;0.68;0.68;;;;;;;15.73;80.60;99126.75;5091741;28;20628;-72
2023/04/26 06:32:43;;;;;;;0.77;0.77;;;;;;;15.82;82.91;99153.56;5091710;28;20206;-73
2023/04/26 06:35:09;;;;;;;0.50;0.50;;;;;;;16.05;86.09;99154.81;5091596;28;20677;-73
2023/04/26 06:37:37;;;;;;;0.57;0.57;;;;;;;16.08;80.75;99154.75;5091560;28;20209;-72
2023/04/26 06:40:04;;;;;;;0.70;0.70;;;;;;;16.27;82.81;99143.81;5091501;28;20198;-73
2023/04/26 06:42:31;;;;;;;0.60;0.60;;;;;;;16.31;77.32;99153.31;5091439;28;20190;-73
2023/04/26 06:44:58;;;;;;;0.60;0.60;;;;;;;16.32;77.81;99157.69;5091630;28;20221;-72
2023/04/26 06:47:25;;;;;;;0.60;0.60;;;;;;;16.37;76.98;99153.19;5072569;28;20218;-73
2023/04/26 06:49:53;;;;;;;0.60;0.60;;;;;;;16.10;76.79;99140.75;5091326;28;20210;-74
2023/04/26 06:52:20;;;;;;;0.50;0.50;;;;;;;16.19;77.11;99164.09;5091480;28;20194;-73
2023/04/26 06:54:48;;;;;;;0.50;0.50;;;;;;;16.34;75.67;99176.81;5091178;28;20226;-72
2023/04/26 06:57:15;;;;;;;0.52;0.52;;;;;;;16.10;73.66;99168.63;5091270;28;20579;-73
2023/04/26 06:59:42;;;;;;;0.60;0.60;;;;;;;16.36;73.16;99148.00;5091274;28;20198;-73
2023/04/26 07:02:08;;;;;;;0.52;0.52;;;;;;;16.44;71.88;99171.38;5091279;28;20209;-73
2023/04/26 07:04:35;;;;;;;0.50;0.50;;;;;;;16.42;71.36;99166.16;5072376;28;20684;-73
2023/04/26 07:07:03;;;;;;;0.60;0.60;;;;;;;16.44;73.69;99176.59;5089095;28;20199;-74
2023/04/26 07:09:30;;;;;;;0.98;0.98;;;;;;;16.60;73.36;99165.75;5090954;28;20198;-72
2023/04/26 07:11:57;;;;;;;0.60;0.60;;;;;;;16.84;73.20;99169.53;5088978;28;20191;-73
2023/04/26 07:14:24;;;;;;;0.60;0.60;;;;;;;16.97;72.95;99155.25;5091013;28;20744;-73
2023/04/26 07:16:51;;;;;;;0.60;0.60;;;;;;;16.93;72.42;99161.47;5090960;28;20220;-73
2023/04/26 07:19:18;;;;;;;0.60;0.60;;;;;;;16.66;70.10;99172.59;5090756;28;20198;-74
2023/04/26 07:21:45;;;;;;;4.05;0.90;;;;;;;16.68;71.71;99168.19;5072054;28;20230;-73
2023/04/26 07:24:13;;;;;;;0.60;0.60;;;;;;;16.80;72.04;99157.44;5090737;28;20221;-73
2023/04/26 07:26:40;;;;;;;0.60;0.60;;;;;;;16.67;73.38;99151.63;5071917;28;20190;-74
2023/04/26 07:29:07;;;;;;;0.60;0.60;;;;;;;16.66;69.33;99092.31;5090659;28;20237;-74
2023/04/26 07:31:34;;;;;;;0.70;0.70;;;;;;;16.87;67.45;99182.56;5090853;28;20677;-71
2023/04/26 07:34:01;;;;;;;0.50;0.50;;;;;;;16.85;69.14;99182.59;5090717;28;20249;-73
2023/04/26 07:36:27;;;;;;;0.60;0.60;;;;;;;17.08;65.75;99174.16;5055358;28;20198;-72
2023/04/26 07:38:54;;;;;;;0.50;0.50;;;;;;;16.63;66.24;99151.72;5071884;28;20194;-72
2023/04/26 07:41:22;;;;;;;0.60;0.60;;;;;;;16.94;67.19;99176.28;5090859;28;20230;-73
2023/04/26 07:43:49;;;;;;;0.60;0.60;;;;;;;16.84;65.82;99172.16;5090676;28;20205;-74
2023/04/26 07:46:16;;;;;;;0.60;0.60;;;;;;;16.99;68.19;99174.38;5090879;28;20259;-74
2023/04/26 07:48:43;;;;;;;0.55;0.55;;;;;;;16.95;65.97;99177.97;5090808;28;20224;-74
2023/04/26 07:51:11;;;;;;;0.52;0.52;;;;;;;16.54;64.91;99096.97;5090578;28;20206;-72
2023/04/26 07:53:39;;;;;;;1.23;1.23;;;;;;;16.77;65.27;99163.59;5091036;28;20225;-72
2023/04/26 07:56:07;;;;;;;0.60;0.60;;;;;;;16.86;67.31;99183.47;5090895;28;20194;-72
2023/04/26 07:58:36;;;;;;;0.60;0.60;;;;;;;17.13;66.96;99167.03;5090627;28;20704;-74
2023/04/26 08:01:03;;;;;;;0.60;0.60;;;;;;;17.04;67.13;99162.06;5090662;28;20665;-74
2023/04/26 08:03:30;;;;;;;0.60;0.60;;;;;;;17.17;67.87;99173.91;5090572;28;20225;-74
2023/04/26 08:05:57;;;;;;;0.60;0.60;;;;;;;17.23;65.92;99175.50;5090298;28;20759;-73
2023/04/26 08:08:25;;;;;;;0.60;0.60;;;;;;;17.25;64.89;99174.59;5090668;28;20205;-73
2023/04/26 08:10:52;;;;;;;0.60;0.60;;;;;;;17.18;65.74;99174.78;5071902;28;20202;-72
2023/04/26 08:13:20;;;;;;;0.60;0.60;;;;;;;17.32;65.92;99157.81;5090173;28;20198;-72
2023/04/26 08:15:48;;;;;;;0.70;0.70;;;;;;;17.43;63.25;99175.84;5090257;28;20203;-73
2023/04/26 08:18:15;;;;;;;0.55;0.55;;;;;;;17.33;63.27;99172.63;5092581;28;20201;-73
2023/04/26 08:20:41;;;;;;;0.60;0.60;;;;;;;17.12;63.29;99151.38;5094116;28;20202;-73
2023/04/26 08:23:08;;;;;;;0.60;0.60;;;;;;;17.29;65.97;99173.59;5094228;28;20198;-72
2023/04/26 08:25:35;;;;;;;0.60;0.60;;;;;;;17.39;62.55;99158.47;5094141;28;20243;-73
2023/04/26 08:28:03;;;;;;;0.60;0.60;;;;;;;17.64;62.05;99174.44;5091864;28;20209;-72
2023/04/26 08:30:30;;;;;;;0.60;0.60;;;;;;;17.88;61.50;99167.59;5093951;28;20206;-73
2023/04/26 08:32:58;;;;;;;0.60;0.60;;;;;;;18.09;61.75;99172.22;5090013;28;20209;-75
2023/04/26 08:35:25;;;;;;;0.50;0.50;;;;;;;18.08;60.82;99160.91;5084746;28;20223;-74
2023/04/26 08:37:52;;;;;;;0.70;0.70;;;;;;;17.89;62.14;99164.97;5081598;28;20198;-75
2023/04/26 08:40:24;;;;;;;0.60;0.60;;;;;;;18.04;60.20;99174.13;5079559;28;20213;-75
2023/04/26 08:42:52;;;;;;;0.82;0.82;;;;;;;17.88;59.24;99163.22;5073395;28;20207;-75
2023/04/26 08:45:20;;;;;;;0.50;0.50;;;;;;;17.92;59.76;99175.34;5086372;28;20571;-74
2023/04/26 08:47:48;;;;;;;0.70;0.70;;;;;;;18.28;61.55;99163.75;5079280;28;20217;-74
2023/04/26 08:50:19;;;;;;;0.60;0.60;;;;;;;18.18;60.84;99172.81;5093511;28;20207;-74
2023/04/26 08:52:48;;;;;;;0.50;0.50;;;;;;;18.15;61.29;99170.31;5074807;28;20697;-73
2023/04/26 08:55:16;;;;;;;0.70;0.70;;;;;;;17.82;59.34;99166.91;5084127;28;20222;-74
2023/04/26 08:57:45;;;;;;;0.60;0.60;;;;;;;17.57;61.20;99171.13;5093228;28;20206;-75
2023/04/26 09:00:14;;;;;;;0.60;0.60;;;;;;;17.35;64.60;99155.09;5083945;28;20268;-75
2023/04/26 09:02:42;;;;;;;0.52;0.52;;;;;;;17.46;63.62;99138.22;5087946;28;20290;-74
2023/04/26 09:05:10;;;;;;;0.80;0.80;;;;;;;17.83;60.68;99173.00;5080379;28;20206;-73
2023/04/26 09:07:41;;;;;;;0.60;0.60;;;;;;;17.59;59.93;99166.69;5093195;28;20202;-74
2023/04/26 09:10:10;;;;;;;0.60;0.60;;;;;;;17.43;60.61;99148.78;5093061;28;20300;-74
2023/04/26 09:12:36;;;;;;;0.70;0.70;;;;;;;17.77;60.45;99173.16;5079605;28;20210;-74
2023/04/26 09:15:06;;;;;;;0.70;0.70;;;;;;;17.83;59.45;99170.38;5086820;28;20318;-74
2023/04/26 09:17:35;;;;;;;0.80;0.80;;;;;;;17.85;60.02;99152.84;5072489;28;20206;-74
2023/04/26 09:20:16;;;;;;;0.82;0.82;;;;;;;18.22;61.00;99158.72;5086496;28;20285;-76
2023/04/26 09:22:45;;;;;;;0.50;0.50;;;;;;;18.73;58.88;99171.09;5072400;28;20589;-75
2023/04/26 09:25:13;;;;;;;0.50;0.50;;;;;;;18.73;58.60;99150.97;5072646;28;20298;-75
2023/04/26 09:27:44;;;;;;;0.60;0.60;;;;;;;18.60;58.16;99154.03;5072527;28;20233;-75
2023/04/26 09:30:14;;;;;;;0.50;0.50;;;;;;;18.50;59.52;99145.56;5071265;28;20203;-75
2023/04/26 09:32:46;;;;;;;0.70;0.70;;;;;;;18.66;58.75;99135.44;5072579;28;20653;-75
2023/04/26 09:35:29;;;;;;;0.60;0.60;;;;;;;18.58;59.91;99161.97;5072246;28;20233;-75
2023/04/26 09:37:59;;;;;;;0.85;0.85;;;;;;;18.80;59.53;99172.63;5010421;28;20201;-75
2023/04/26 09:40:28;;;;;;;0.70;0.70;;;;;;;19.13;58.12;99158.38;5010336;28;20220;-74
2023/04/26 09:42:59;;;;;;;0.60;0.60;;;;;;;19.28;59.04;99160.47;5010257;28;20210;-76
2023/04/26 09:45:26;;;;;;;0.60;0.60;;;;;;;19.20;58.22;99151.97;5010061;28;20197;-74
2023/04/26 09:47:53;;;;;;;0.60;0.60;;;;;;;19.40;58.83;99143.41;5010190;28;20603;-74
2023/04/26 09:50:28;;;;;;;0.60;0.60;;;;;;;19.33;58.44;99168.19;5010135;28;20197;-76
2023/04/26 09:52:55;;;;;;;0.60;0.60;;;;;;;19.17;56.52;99159.13;5010110;28;20200;-74
2023/04/26 09:55:32;;;;;;;0.73;0.73;;;;;;;19.11;55.96;99167.22;5010163;28;20232;-75
2023/04/26 09:57:59;;;;;;;0.60;0.60;;;;;;;19.14;56.85;99151.34;5010104;28;20692;-75
2023/04/26 10:00:27;;;;;;;0.60;0.60;;;;;;;19.36;56.09;99154.09;5004481;28;20221;-76
2023/04/26 10:02:55;;;;;;;0.60;0.60;;;;;;;19.41;57.01;99170.53;5023884;28;20216;-75
2023/04/26 10:05:22;;;;;;;0.60;0.60;;;;;;;19.29;56.08;99177.09;5009852;28;20209;-74
2023/04/26 10:07:50;;;;;;;0.50;0.50;;;;;;;18.94;56.09;99152.00;5016854;28;20208;-74
2023/04/26 10:10:18;;;;;;;0.57;0.57;;;;;;;19.16;55.89;99170.53;5009900;28;20386;-74
2023/04/26 10:12:47;;;;;;;0.60;0.60;;;;;;;19.28;56.76;99168.34;5023959;28;20319;-73
2023/04/26 10:15:15;;;;;;;0.60;0.60;;;;;;;19.28;55.22;99165.72;5060645;28;20230;-74
2023/04/26 10:17:42;;;;;;;0.60;0.60;;;;;;;19.59;54.12;99169.91;5078880;28;20686;-74
2023/04/26 10:20:13;;;;;;;0.80;0.80;;;;;;;19.71;54.46;99169.47;5071482;28;20202;-74
2023/04/26 10:22:45;;;;;;;0.70;0.70;;;;;;;19.55;54.53;99163.06;5079693;28;20213;-76
2023/04/26 10:25:12;;;;;;;0.60;0.60;;;;;;;19.00;54.61;99166.72;5055341;28;20692;-75
2023/04/26 10:27:51;;;;;;;0.60;0.60;;;;;;;19.18;55.52;99174.84;5091700;28;20206;-73
2023/04/26 10:30:22;;;;;;;0.60;0.60;;;;;;;19.26;54.31;99177.22;5076876;28;20657;-73
2023/04/26 10:33:15;;;;;;;0.60;0.60;;;;;;;19.72;53.95;99176.47;5079929;28;20226;-73
2023/04/26 10:36:01;;;;;;;0.60;0.60;;;;;;;19.93;54.79;99162.50;5008825;28;20659;-73
2023/04/26 10:38:28;;;;;;;0.60;0.60;;;;;;;19.68;54.79;99180.13;5022866;28;20265;-73
2023/04/26 10:40:55;;;;;;;0.60;0.60;;;;;;;19.55;55.79;99173.59;5008515;28;20208;-73
2023/04/26 10:43:31;;;;;;;0.50;0.50;;;;;;;19.41;55.79;99170.53;5009315;28;20204;-73
2023/04/26 10:46:33;;;;;;;0.60;0.60;;;;;;;19.56;54.80;99177.91;5008708;28;20736;-74
2023/04/26 10:49:13;;;;;;;0.50;0.50;;;;;;;19.79;53.82;99183.22;5026654;28;20196;-74
2023/04/26 10:51:40;;;;;;;0.60;0.60;;;;;;;19.67;53.72;99181.88;5028910;28;20204;-74
2023/04/26 10:54:07;;;;;;;0.60;0.60;;;;;;;19.72;53.84;99173.84;4979926;28;20532;-74
2023/04/26 10:56:52;;;;;;;0.60;0.60;;;;;;;19.62;54.30;99168.03;5028542;28;20577;-74
2023/04/26 10:59:23;;;;;;;0.52;0.52;;;;;;;19.52;53.56;99173.69;5028687;28;20224;-74
2023/04/26 11:01:52;;;;;;;0.50;0.50;;;;;;;19.80;51.69;99169.13;5028537;28;20204;-74
2023/04/26 11:04:19;;;;;;;1.27;1.15;;;;;;;20.33;52.04;99180.31;5028589;28;20254;-73
2023/04/26 11:06:50;;;;;;;0.70;0.70;;;;;;;20.42;51.93;99174.66;5028523;28;20200;-74
2023/04/26 11:09:36;;;;;;;0.60;0.60;;;;;;;20.30;51.67;99177.78;5028437;28;20290;-73
2023/04/26 11:12:10;;;;;;;0.50;0.50;;;;;;;19.82;53.10;99175.22;4993474;28;20673;-73
2023/04/26 11:14:41;;;;;;;0.60;0.60;;;;;;;20.05;52.67;99175.19;5090707;28;20321;-74
2023/04/26 11:17:08;;;;;;;0.60;0.60;;;;;;;20.25;57.02;99161.28;5090992;28;20289;-73
2023/04/26 11:19:35;;;;;;;0.50;0.50;;;;;;;20.44;54.82;99153.56;5090630;28;20637;-74
2023/04/26 11:22:03;;;;;;;0.60;0.60;;;;;;;20.21;53.12;99157.91;5091145;28;20200;-74
2023/04/26 11:24:31;;;;;;;0.60;0.60;;;;;;;20.31;56.36;99147.03;5090856;28;20282;-74
2023/04/26 11:26:59;;;;;;;0.50;0.50;;;;;;;20.15;52.44;99145.00;5090844;28;20693;-73
2023/04/26 11:29:26;;;;;;;0.70;0.70;;;;;;;20.01;51.82;99163.06;5090778;28;20202;-73
2023/04/26 11:31:56;;;;;;;0.50;0.50;;;;;;;20.13;52.66;99146.81;5090480;28;20238;-73
2023/04/26 11:34:23;;;;;;;0.50;0.50;;;;;;;20.09;51.54;99155.75;5055685;28;20206;-73